sensor_id;sensor_type;location;lat;lon;timestamp;P1;durP1;ratioP1;P2;durP2;ratioP2
41755;SDS011;27435;48.480;9.258;2023-12-29T00:00:02;5.17;;;2.00;;
41755;SDS011;27435;48.480;9.258;2023-12-29T00:02:28;3.07;;;1.50;;
41755;SDS011;27435;48.480;9.258;2023-12-29T00:04:54;3.63;;;1.70;;
41755;SDS011;27435;48.480;9.258;2023-12-29T00:07:19;4.10;;;1.87;;
41755;SDS011;27435;48.480;9.258;2023-12-29T00:09:45;3.43;;;2.00;;
41755;SDS011;27435;48.480;9.258;2023-12-29T00:12:11;3.90;;;2.00;;
41755;SDS011;27435;48.480;9.258;2023-12-29T00:14:37;4.47;;;1.70;;
41755;SDS011;27435;48.480;9.258;2023-12-29T00:17:03;3.00;;;1.37;;
41755;SDS011;27435;48.480;9.258;2023-12-29T00:19:29;3.23;;;1.60;;
41755;SDS011;27435;48.480;9.258;2023-12-29T00:21:55;3.00;;;1.50;;
41755;SDS011;27435;48.480;9.258;2023-12-29T00:24:20;2.43;;;1.50;;
41755;SDS011;27435;48.480;9.258;2023-12-29T00:26:46;3.20;;;1.70;;
41755;SDS011;27435;48.480;9.258;2023-12-29T00:29:13;4.87;;;1.80;;
41755;SDS011;27435;48.480;9.258;2023-12-29T00:31:40;3.87;;;1.40;;
41755;SDS011;27435;48.480;9.258;2023-12-29T00:34:06;4.03;;;1.60;;
41755;SDS011;27435;48.480;9.258;2023-12-29T00:36:31;2.60;;;1.53;;
41755;SDS011;27435;48.480;9.258;2023-12-29T00:38:57;4.10;;;1.40;;
41755;SDS011;27435;48.480;9.258;2023-12-29T00:41:23;3.47;;;1.50;;
41755;SDS011;27435;48.480;9.258;2023-12-29T00:43:48;3.63;;;1.40;;
41755;SDS011;27435;48.480;9.258;2023-12-29T00:46:14;3.63;;;1.47;;
41755;SDS011;27435;48.480;9.258;2023-12-29T00:48:43;3.13;;;1.87;;
41755;SDS011;27435;48.480;9.258;2023-12-29T00:51:08;3.20;;;1.73;;
41755;SDS011;27435;48.480;9.258;2023-12-29T00:53:34;2.40;;;1.47;;
41755;SDS011;27435;48.480;9.258;2023-12-29T00:56:00;3.63;;;1.43;;
41755;SDS011;27435;48.480;9.258;2023-12-29T00:58:26;3.07;;;1.40;;
41755;SDS011;27435;48.480;9.258;2023-12-29T01:00:52;4.10;;;1.60;;
41755;SDS011;27435;48.480;9.258;2023-12-29T01:03:18;4.17;;;1.67;;
41755;SDS011;27435;48.480;9.258;2023-12-29T01:05:45;2.67;;;1.40;;
41755;SDS011;27435;48.480;9.258;2023-12-29T01:08:10;2.47;;;1.40;;
41755;SDS011;27435;48.480;9.258;2023-12-29T01:10:36;4.27;;;1.60;;
41755;SDS011;27435;48.480;9.258;2023-12-29T01:13:02;4.23;;;1.57;;
41755;SDS011;27435;48.480;9.258;2023-12-29T01:15:39;3.20;;;1.63;;
41755;SDS011;27435;48.480;9.258;2023-12-29T01:18:47;4.50;;;1.70;;
41755;SDS011;27435;48.480;9.258;2023-12-29T01:21:20;3.13;;;1.40;;
41755;SDS011;27435;48.480;9.258;2023-12-29T01:23:48;4.00;;;1.80;;
41755;SDS011;27435;48.480;9.258;2023-12-29T01:26:14;4.50;;;1.80;;
41755;SDS011;27435;48.480;9.258;2023-12-29T01:28:39;3.30;;;1.77;;
41755;SDS011;27435;48.480;9.258;2023-12-29T01:31:05;3.73;;;1.93;;
41755;SDS011;27435;48.480;9.258;2023-12-29T01:33:31;2.80;;;1.60;;
41755;SDS011;27435;48.480;9.258;2023-12-29T01:35:56;6.70;;;2.43;;
41755;SDS011;27435;48.480;9.258;2023-12-29T01:38:22;3.73;;;1.70;;
41755;SDS011;27435;48.480;9.258;2023-12-29T01:40:47;5.77;;;2.07;;
41755;SDS011;27435;48.480;9.258;2023-12-29T01:43:16;3.17;;;1.70;;
41755;SDS011;27435;48.480;9.258;2023-12-29T01:45:44;6.93;;;1.90;;
41755;SDS011;27435;48.480;9.258;2023-12-29T01:48:10;3.13;;;1.60;;
41755;SDS011;27435;48.480;9.258;2023-12-29T01:50:35;9.10;;;2.17;;
41755;SDS011;27435;48.480;9.258;2023-12-29T01:53:01;3.47;;;1.70;;
41755;SDS011;27435;48.480;9.258;2023-12-29T01:55:28;4.93;;;2.07;;
41755;SDS011;27435;48.480;9.258;2023-12-29T01:57:55;4.60;;;2.10;;
41755;SDS011;27435;48.480;9.258;2023-12-29T02:00:21;4.20;;;1.73;;
41755;SDS011;27435;48.480;9.258;2023-12-29T02:02:47;3.83;;;2.17;;
41755;SDS011;27435;48.480;9.258;2023-12-29T02:05:13;2.90;;;1.80;;
41755;SDS011;27435;48.480;9.258;2023-12-29T02:07:42;3.07;;;1.73;;
41755;SDS011;27435;48.480;9.258;2023-12-29T02:10:08;3.00;;;2.03;;
41755;SDS011;27435;48.480;9.258;2023-12-29T02:12:38;6.10;;;1.60;;
41755;SDS011;27435;48.480;9.258;2023-12-29T02:15:04;5.03;;;2.00;;
41755;SDS011;27435;48.480;9.258;2023-12-29T02:17:33;7.43;;;1.90;;
41755;SDS011;27435;48.480;9.258;2023-12-29T02:20:05;4.37;;;2.10;;
41755;SDS011;27435;48.480;9.258;2023-12-29T02:22:32;3.30;;;1.40;;
41755;SDS011;27435;48.480;9.258;2023-12-29T02:24:57;4.03;;;2.37;;
41755;SDS011;27435;48.480;9.258;2023-12-29T02:30:12;3.03;;;1.73;;
41755;SDS011;27435;48.480;9.258;2023-12-29T02:33:16;3.13;;;1.10;;
41755;SDS011;27435;48.480;9.258;2023-12-29T02:35:45;2.87;;;1.40;;
41755;SDS011;27435;48.480;9.258;2023-12-29T02:38:12;1.97;;;1.20;;
41755;SDS011;27435;48.480;9.258;2023-12-29T02:40:38;4.37;;;1.60;;
41755;SDS011;27435;48.480;9.258;2023-12-29T02:43:04;2.50;;;1.30;;
41755;SDS011;27435;48.480;9.258;2023-12-29T02:45:29;2.60;;;1.30;;
41755;SDS011;27435;48.480;9.258;2023-12-29T02:47:55;3.07;;;1.53;;
41755;SDS011;27435;48.480;9.258;2023-12-29T02:50:21;2.20;;;1.13;;
41755;SDS011;27435;48.480;9.258;2023-12-29T02:52:46;2.23;;;1.20;;
41755;SDS011;27435;48.480;9.258;2023-12-29T02:55:12;2.63;;;1.40;;
41755;SDS011;27435;48.480;9.258;2023-12-29T02:57:38;2.27;;;1.20;;
41755;SDS011;27435;48.480;9.258;2023-12-29T03:00:04;4.80;;;1.17;;
41755;SDS011;27435;48.480;9.258;2023-12-29T03:02:30;2.30;;;1.00;;
41755;SDS011;27435;48.480;9.258;2023-12-29T03:04:56;2.47;;;0.90;;
41755;SDS011;27435;48.480;9.258;2023-12-29T03:07:22;1.83;;;0.90;;
41755;SDS011;27435;48.480;9.258;2023-12-29T03:09:47;1.67;;;0.87;;
41755;SDS011;27435;48.480;9.258;2023-12-29T03:12:13;3.30;;;0.90;;
41755;SDS011;27435;48.480;9.258;2023-12-29T03:14:39;1.40;;;0.70;;
41755;SDS011;27435;48.480;9.258;2023-12-29T03:17:04;4.90;;;1.10;;
41755;SDS011;27435;48.480;9.258;2023-12-29T03:19:30;1.83;;;0.70;;
41755;SDS011;27435;48.480;9.258;2023-12-29T03:21:55;1.60;;;0.80;;
41755;SDS011;27435;48.480;9.258;2023-12-29T03:24:21;3.53;;;1.03;;
41755;SDS011;27435;48.480;9.258;2023-12-29T03:26:47;1.77;;;0.80;;
41755;SDS011;27435;48.480;9.258;2023-12-29T03:29:12;1.80;;;1.00;;
41755;SDS011;27435;48.480;9.258;2023-12-29T03:31:38;2.07;;;0.83;;
41755;SDS011;27435;48.480;9.258;2023-12-29T03:34:07;2.43;;;0.90;;
41755;SDS011;27435;48.480;9.258;2023-12-29T03:36:32;1.97;;;0.90;;
41755;SDS011;27435;48.480;9.258;2023-12-29T03:38:58;2.03;;;0.97;;
41755;SDS011;27435;48.480;9.258;2023-12-29T03:41:24;3.30;;;1.00;;
41755;SDS011;27435;48.480;9.258;2023-12-29T03:43:49;4.70;;;1.10;;
41755;SDS011;27435;48.480;9.258;2023-12-29T03:46:18;2.60;;;1.13;;
41755;SDS011;27435;48.480;9.258;2023-12-29T03:48:47;3.20;;;1.00;;
41755;SDS011;27435;48.480;9.258;2023-12-29T03:51:13;2.73;;;1.00;;
41755;SDS011;27435;48.480;9.258;2023-12-29T03:53:40;2.90;;;1.27;;
41755;SDS011;27435;48.480;9.258;2023-12-29T03:56:14;2.77;;;1.10;;
41755;SDS011;27435;48.480;9.258;2023-12-29T03:58:44;4.60;;;0.90;;
41755;SDS011;27435;48.480;9.258;2023-12-29T04:01:13;2.33;;;0.80;;
41755;SDS011;27435;48.480;9.258;2023-12-29T04:03:40;2.10;;;1.00;;
41755;SDS011;27435;48.480;9.258;2023-12-29T04:06:06;2.50;;;0.90;;
41755;SDS011;27435;48.480;9.258;2023-12-29T04:08:33;1.67;;;0.80;;
41755;SDS011;27435;48.480;9.258;2023-12-29T04:10:59;2.40;;;1.07;;
41755;SDS011;27435;48.480;9.258;2023-12-29T04:13:25;1.70;;;0.87;;
41755;SDS011;27435;48.480;9.258;2023-12-29T04:15:50;2.50;;;1.00;;
41755;SDS011;27435;48.480;9.258;2023-12-29T04:18:17;3.00;;;1.00;;
41755;SDS011;27435;48.480;9.258;2023-12-29T04:20:43;2.67;;;1.43;;
41755;SDS011;27435;48.480;9.258;2023-12-29T04:23:08;2.70;;;1.40;;
41755;SDS011;27435;48.480;9.258;2023-12-29T04:25:34;2.40;;;1.20;;
41755;SDS011;27435;48.480;9.258;2023-12-29T04:27:59;2.77;;;1.20;;
41755;SDS011;27435;48.480;9.258;2023-12-29T04:30:25;2.07;;;1.13;;
41755;SDS011;27435;48.480;9.258;2023-12-29T04:32:51;3.20;;;1.07;;
41755;SDS011;27435;48.480;9.258;2023-12-29T04:35:16;3.00;;;1.40;;
41755;SDS011;27435;48.480;9.258;2023-12-29T04:37:43;2.77;;;1.20;;
41755;SDS011;27435;48.480;9.258;2023-12-29T04:40:11;2.37;;;1.40;;
41755;SDS011;27435;48.480;9.258;2023-12-29T04:42:37;2.87;;;1.10;;
41755;SDS011;27435;48.480;9.258;2023-12-29T04:45:03;2.27;;;1.30;;
41755;SDS011;27435;48.480;9.258;2023-12-29T04:47:30;2.77;;;1.30;;
41755;SDS011;27435;48.480;9.258;2023-12-29T04:49:55;2.63;;;0.90;;
41755;SDS011;27435;48.480;9.258;2023-12-29T04:52:21;2.03;;;0.90;;
41755;SDS011;27435;48.480;9.258;2023-12-29T04:54:47;2.03;;;0.97;;
41755;SDS011;27435;48.480;9.258;2023-12-29T04:57:13;2.73;;;1.40;;
41755;SDS011;27435;48.480;9.258;2023-12-29T04:59:39;1.90;;;0.90;;
41755;SDS011;27435;48.480;9.258;2023-12-29T05:02:05;3.77;;;1.10;;
41755;SDS011;27435;48.480;9.258;2023-12-29T05:04:31;1.83;;;0.90;;
41755;SDS011;27435;48.480;9.258;2023-12-29T05:06:56;3.40;;;1.90;;
41755;SDS011;27435;48.480;9.258;2023-12-29T05:09:22;2.63;;;0.80;;
41755;SDS011;27435;48.480;9.258;2023-12-29T05:11:48;1.63;;;0.90;;
41755;SDS011;27435;48.480;9.258;2023-12-29T05:14:14;2.33;;;0.93;;
41755;SDS011;27435;48.480;9.258;2023-12-29T05:16:41;2.57;;;1.00;;
41755;SDS011;27435;48.480;9.258;2023-12-29T05:19:07;2.23;;;1.10;;
41755;SDS011;27435;48.480;9.258;2023-12-29T05:21:32;3.57;;;1.10;;
41755;SDS011;27435;48.480;9.258;2023-12-29T05:23:58;1.83;;;1.00;;
41755;SDS011;27435;48.480;9.258;2023-12-29T05:26:24;1.13;;;0.73;;
41755;SDS011;27435;48.480;9.258;2023-12-29T05:28:50;2.00;;;1.00;;
41755;SDS011;27435;48.480;9.258;2023-12-29T05:31:16;2.07;;;0.87;;
41755;SDS011;27435;48.480;9.258;2023-12-29T05:33:42;2.40;;;1.00;;
41755;SDS011;27435;48.480;9.258;2023-12-29T05:36:09;1.60;;;0.80;;
41755;SDS011;27435;48.480;9.258;2023-12-29T05:38:35;2.17;;;0.80;;
41755;SDS011;27435;48.480;9.258;2023-12-29T05:41:02;1.97;;;1.00;;
41755;SDS011;27435;48.480;9.258;2023-12-29T05:43:30;1.80;;;0.97;;
41755;SDS011;27435;48.480;9.258;2023-12-29T05:45:57;3.70;;;1.40;;
41755;SDS011;27435;48.480;9.258;2023-12-29T05:48:23;1.60;;;0.80;;
41755;SDS011;27435;48.480;9.258;2023-12-29T05:50:49;2.33;;;1.17;;
41755;SDS011;27435;48.480;9.258;2023-12-29T05:53:15;2.80;;;0.93;;
41755;SDS011;27435;48.480;9.258;2023-12-29T05:55:41;1.53;;;1.00;;
41755;SDS011;27435;48.480;9.258;2023-12-29T05:58:08;1.40;;;0.70;;
41755;SDS011;27435;48.480;9.258;2023-12-29T06:00:34;1.50;;;0.70;;
41755;SDS011;27435;48.480;9.258;2023-12-29T06:03:00;1.50;;;0.70;;
41755;SDS011;27435;48.480;9.258;2023-12-29T06:05:25;1.83;;;0.70;;
41755;SDS011;27435;48.480;9.258;2023-12-29T06:07:51;2.37;;;0.80;;
41755;SDS011;27435;48.480;9.258;2023-12-29T06:10:17;1.40;;;0.70;;
41755;SDS011;27435;48.480;9.258;2023-12-29T06:12:42;0.93;;;0.53;;
41755;SDS011;27435;48.480;9.258;2023-12-29T06:15:08;1.60;;;0.80;;
41755;SDS011;27435;48.480;9.258;2023-12-29T06:17:34;1.43;;;0.60;;
41755;SDS011;27435;48.480;9.258;2023-12-29T06:20:00;2.10;;;0.80;;
41755;SDS011;27435;48.480;9.258;2023-12-29T06:22:27;1.50;;;0.70;;
41755;SDS011;27435;48.480;9.258;2023-12-29T06:24:53;2.07;;;0.93;;
41755;SDS011;27435;48.480;9.258;2023-12-29T06:27:19;4.00;;;0.80;;
41755;SDS011;27435;48.480;9.258;2023-12-29T06:29:44;1.60;;;0.80;;
41755;SDS011;27435;48.480;9.258;2023-12-29T06:32:10;2.83;;;1.00;;
41755;SDS011;27435;48.480;9.258;2023-12-29T06:34:35;1.47;;;0.70;;
41755;SDS011;27435;48.480;9.258;2023-12-29T06:37:01;1.37;;;0.77;;
41755;SDS011;27435;48.480;9.258;2023-12-29T06:39:27;1.40;;;0.80;;
41755;SDS011;27435;48.480;9.258;2023-12-29T06:41:52;1.47;;;0.80;;
41755;SDS011;27435;48.480;9.258;2023-12-29T06:44:18;1.43;;;0.80;;
41755;SDS011;27435;48.480;9.258;2023-12-29T06:46:44;2.10;;;0.70;;
41755;SDS011;27435;48.480;9.258;2023-12-29T06:49:09;1.53;;;0.70;;
41755;SDS011;27435;48.480;9.258;2023-12-29T06:51:35;1.20;;;0.67;;
41755;SDS011;27435;48.480;9.258;2023-12-29T06:54:01;1.33;;;0.70;;
41755;SDS011;27435;48.480;9.258;2023-12-29T06:56:27;2.33;;;0.90;;
41755;SDS011;27435;48.480;9.258;2023-12-29T06:58:53;2.13;;;0.67;;
41755;SDS011;27435;48.480;9.258;2023-12-29T07:01:18;1.90;;;0.93;;
41755;SDS011;27435;48.480;9.258;2023-12-29T07:03:44;1.87;;;0.90;;
41755;SDS011;27435;48.480;9.258;2023-12-29T07:06:10;2.20;;;0.80;;
41755;SDS011;27435;48.480;9.258;2023-12-29T07:08:36;1.90;;;0.90;;
41755;SDS011;27435;48.480;9.258;2023-12-29T07:11:01;1.53;;;0.80;;
41755;SDS011;27435;48.480;9.258;2023-12-29T07:13:27;1.67;;;0.73;;
41755;SDS011;27435;48.480;9.258;2023-12-29T07:15:54;2.00;;;0.80;;
41755;SDS011;27435;48.480;9.258;2023-12-29T07:18:19;2.77;;;1.17;;
41755;SDS011;27435;48.480;9.258;2023-12-29T07:20:45;1.57;;;0.80;;
41755;SDS011;27435;48.480;9.258;2023-12-29T07:23:11;2.90;;;0.60;;
41755;SDS011;27435;48.480;9.258;2023-12-29T07:25:36;2.30;;;0.90;;
41755;SDS011;27435;48.480;9.258;2023-12-29T07:28:02;1.60;;;0.90;;
41755;SDS011;27435;48.480;9.258;2023-12-29T07:30:28;1.90;;;1.00;;
41755;SDS011;27435;48.480;9.258;2023-12-29T07:32:53;2.00;;;0.80;;
41755;SDS011;27435;48.480;9.258;2023-12-29T07:35:19;2.10;;;0.63;;
41755;SDS011;27435;48.480;9.258;2023-12-29T07:37:45;2.03;;;0.90;;
41755;SDS011;27435;48.480;9.258;2023-12-29T07:40:12;2.07;;;0.60;;
41755;SDS011;27435;48.480;9.258;2023-12-29T07:42:41;1.73;;;0.63;;
41755;SDS011;27435;48.480;9.258;2023-12-29T07:45:08;2.93;;;0.80;;
41755;SDS011;27435;48.480;9.258;2023-12-29T07:47:34;1.13;;;0.53;;
41755;SDS011;27435;48.480;9.258;2023-12-29T07:50:00;1.40;;;0.67;;
41755;SDS011;27435;48.480;9.258;2023-12-29T07:52:26;2.33;;;0.83;;
41755;SDS011;27435;48.480;9.258;2023-12-29T07:54:52;1.40;;;0.60;;
41755;SDS011;27435;48.480;9.258;2023-12-29T07:57:17;1.13;;;0.70;;
41755;SDS011;27435;48.480;9.258;2023-12-29T07:59:43;1.53;;;0.70;;
41755;SDS011;27435;48.480;9.258;2023-12-29T08:02:09;2.30;;;0.77;;
41755;SDS011;27435;48.480;9.258;2023-12-29T08:04:34;1.77;;;0.80;;
41755;SDS011;27435;48.480;9.258;2023-12-29T08:07:00;1.30;;;0.63;;
41755;SDS011;27435;48.480;9.258;2023-12-29T08:09:26;1.53;;;0.80;;
41755;SDS011;27435;48.480;9.258;2023-12-29T08:11:52;2.37;;;0.80;;
41755;SDS011;27435;48.480;9.258;2023-12-29T08:14:18;1.67;;;0.70;;
41755;SDS011;27435;48.480;9.258;2023-12-29T08:16:43;2.27;;;0.90;;
41755;SDS011;27435;48.480;9.258;2023-12-29T08:19:09;1.23;;;0.67;;
41755;SDS011;27435;48.480;9.258;2023-12-29T08:21:38;1.37;;;0.60;;
41755;SDS011;27435;48.480;9.258;2023-12-29T08:24:03;1.03;;;0.60;;
41755;SDS011;27435;48.480;9.258;2023-12-29T08:26:29;1.40;;;0.77;;
41755;SDS011;27435;48.480;9.258;2023-12-29T08:28:55;2.10;;;1.07;;
41755;SDS011;27435;48.480;9.258;2023-12-29T08:31:21;2.17;;;0.70;;
41755;SDS011;27435;48.480;9.258;2023-12-29T08:33:51;1.90;;;0.87;;
41755;SDS011;27435;48.480;9.258;2023-12-29T08:36:20;1.47;;;0.77;;
41755;SDS011;27435;48.480;9.258;2023-12-29T08:38:46;1.20;;;0.60;;
41755;SDS011;27435;48.480;9.258;2023-12-29T08:41:13;2.93;;;0.83;;
41755;SDS011;27435;48.480;9.258;2023-12-29T08:43:39;1.13;;;0.60;;
41755;SDS011;27435;48.480;9.258;2023-12-29T08:46:05;1.53;;;0.60;;
41755;SDS011;27435;48.480;9.258;2023-12-29T08:48:30;0.87;;;0.50;;
41755;SDS011;27435;48.480;9.258;2023-12-29T08:50:56;1.50;;;0.70;;
41755;SDS011;27435;48.480;9.258;2023-12-29T08:53:22;2.20;;;0.50;;
41755;SDS011;27435;48.480;9.258;2023-12-29T08:55:47;2.00;;;0.83;;
41755;SDS011;27435;48.480;9.258;2023-12-29T08:58:13;2.20;;;0.70;;
41755;SDS011;27435;48.480;9.258;2023-12-29T09:00:38;1.13;;;0.60;;
41755;SDS011;27435;48.480;9.258;2023-12-29T09:03:04;0.93;;;0.50;;
41755;SDS011;27435;48.480;9.258;2023-12-29T09:05:30;1.20;;;0.50;;
41755;SDS011;27435;48.480;9.258;2023-12-29T09:07:55;2.00;;;0.60;;
41755;SDS011;27435;48.480;9.258;2023-12-29T09:10:21;3.90;;;1.03;;
41755;SDS011;27435;48.480;9.258;2023-12-29T09:12:48;1.50;;;0.57;;
41755;SDS011;27435;48.480;9.258;2023-12-29T09:15:14;1.23;;;0.60;;
41755;SDS011;27435;48.480;9.258;2023-12-29T09:17:40;1.57;;;0.60;;
41755;SDS011;27435;48.480;9.258;2023-12-29T09:20:06;1.30;;;0.57;;
41755;SDS011;27435;48.480;9.258;2023-12-29T09:22:33;1.10;;;0.50;;
41755;SDS011;27435;48.480;9.258;2023-12-29T09:24:59;1.00;;;0.50;;
41755;SDS011;27435;48.480;9.258;2023-12-29T09:27:24;0.63;;;0.30;;
41755;SDS011;27435;48.480;9.258;2023-12-29T09:29:50;2.00;;;0.50;;
41755;SDS011;27435;48.480;9.258;2023-12-29T09:32:16;1.00;;;0.50;;
41755;SDS011;27435;48.480;9.258;2023-12-29T09:34:41;1.47;;;0.60;;
41755;SDS011;27435;48.480;9.258;2023-12-29T09:37:07;2.03;;;0.80;;
41755;SDS011;27435;48.480;9.258;2023-12-29T09:39:33;0.73;;;0.30;;
41755;SDS011;27435;48.480;9.258;2023-12-29T09:41:59;3.13;;;0.70;;
41755;SDS011;27435;48.480;9.258;2023-12-29T09:44:28;1.40;;;0.80;;
41755;SDS011;27435;48.480;9.258;2023-12-29T09:46:57;3.10;;;0.50;;
41755;SDS011;27435;48.480;9.258;2023-12-29T09:49:27;1.07;;;0.40;;
41755;SDS011;27435;48.480;9.258;2023-12-29T09:52:02;0.82;;;0.45;;
41755;SDS011;27435;48.480;9.258;2023-12-29T09:54:29;0.97;;;0.47;;
41755;SDS011;27435;48.480;9.258;2023-12-29T09:56:56;2.67;;;0.60;;
41755;SDS011;27435;48.480;9.258;2023-12-29T09:59:22;1.90;;;0.50;;
41755;SDS011;27435;48.480;9.258;2023-12-29T10:01:48;1.50;;;0.50;;
41755;SDS011;27435;48.480;9.258;2023-12-29T10:04:16;1.23;;;0.57;;
41755;SDS011;27435;48.480;9.258;2023-12-29T10:06:44;1.13;;;0.50;;
41755;SDS011;27435;48.480;9.258;2023-12-29T10:09:11;2.70;;;0.60;;
41755;SDS011;27435;48.480;9.258;2023-12-29T10:11:38;0.50;;;0.33;;
41755;SDS011;27435;48.480;9.258;2023-12-29T10:14:16;0.87;;;0.40;;
41755;SDS011;27435;48.480;9.258;2023-12-29T10:19:58;1.23;;;0.40;;
41755;SDS011;27435;48.480;9.258;2023-12-29T10:25:04;1.87;;;0.70;;
41755;SDS011;27435;48.480;9.258;2023-12-29T10:27:30;1.33;;;0.60;;
41755;SDS011;27435;48.480;9.258;2023-12-29T10:29:55;1.63;;;1.10;;
41755;SDS011;27435;48.480;9.258;2023-12-29T10:32:21;3.60;;;1.17;;
41755;SDS011;27435;48.480;9.258;2023-12-29T10:34:47;1.13;;;0.43;;
41755;SDS011;27435;48.480;9.258;2023-12-29T10:37:13;1.67;;;0.50;;
41755;SDS011;27435;48.480;9.258;2023-12-29T10:39:56;1.35;;;0.65;;
41755;SDS011;27435;48.480;9.258;2023-12-29T10:42:22;2.33;;;0.60;;
41755;SDS011;27435;48.480;9.258;2023-12-29T10:44:48;1.90;;;1.00;;
41755;SDS011;27435;48.480;9.258;2023-12-29T10:47:30;1.33;;;0.73;;
41755;SDS011;27435;48.480;9.258;2023-12-29T10:49:58;1.23;;;0.70;;
41755;SDS011;27435;48.480;9.258;2023-12-29T10:52:24;1.50;;;0.80;;
41755;SDS011;27435;48.480;9.258;2023-12-29T10:54:50;2.53;;;0.47;;
41755;SDS011;27435;48.480;9.258;2023-12-29T10:57:33;1.73;;;0.80;;
41755;SDS011;27435;48.480;9.258;2023-12-29T10:59:59;1.60;;;0.63;;
41755;SDS011;27435;48.480;9.258;2023-12-29T11:02:27;1.30;;;0.50;;
41755;SDS011;27435;48.480;9.258;2023-12-29T11:05:06;2.73;;;0.50;;
41755;SDS011;27435;48.480;9.258;2023-12-29T11:10:05;2.10;;;0.77;;
41755;SDS011;27435;48.480;9.258;2023-12-29T11:12:32;1.77;;;0.50;;
41755;SDS011;27435;48.480;9.258;2023-12-29T11:15:00;1.70;;;0.90;;
41755;SDS011;27435;48.480;9.258;2023-12-29T11:17:29;1.00;;;0.50;;
41755;SDS011;27435;48.480;9.258;2023-12-29T11:19:57;1.57;;;0.70;;
41755;SDS011;27435;48.480;9.258;2023-12-29T11:22:24;2.10;;;0.70;;
41755;SDS011;27435;48.480;9.258;2023-12-29T11:24:52;2.50;;;1.40;;
41755;SDS011;27435;48.480;9.258;2023-12-29T11:27:18;3.83;;;1.10;;
41755;SDS011;27435;48.480;9.258;2023-12-29T11:29:46;0.77;;;0.47;;
41755;SDS011;27435;48.480;9.258;2023-12-29T11:32:14;1.37;;;0.50;;
41755;SDS011;27435;48.480;9.258;2023-12-29T11:34:47;2.20;;;0.80;;
41755;SDS011;27435;48.480;9.258;2023-12-29T11:37:28;1.50;;;0.60;;
41755;SDS011;27435;48.480;9.258;2023-12-29T11:40:27;1.60;;;0.70;;
41755;SDS011;27435;48.480;9.258;2023-12-29T11:43:02;5.43;;;0.87;;
41755;SDS011;27435;48.480;9.258;2023-12-29T11:45:33;2.03;;;0.90;;
41755;SDS011;27435;48.480;9.258;2023-12-29T11:48:00;1.80;;;0.70;;
41755;SDS011;27435;48.480;9.258;2023-12-29T11:50:28;1.37;;;0.70;;
41755;SDS011;27435;48.480;9.258;2023-12-29T11:52:58;2.37;;;0.73;;
41755;SDS011;27435;48.480;9.258;2023-12-29T11:55:28;1.47;;;0.60;;
41755;SDS011;27435;48.480;9.258;2023-12-29T11:57:56;1.60;;;0.50;;
41755;SDS011;27435;48.480;9.258;2023-12-29T12:00:41;3.47;;;0.80;;
41755;SDS011;27435;48.480;9.258;2023-12-29T12:03:23;1.83;;;0.73;;
41755;SDS011;27435;48.480;9.258;2023-12-29T12:05:51;1.63;;;0.70;;
41755;SDS011;27435;48.480;9.258;2023-12-29T12:10:53;2.87;;;0.60;;
41755;SDS011;27435;48.480;9.258;2023-12-29T12:16:08;1.80;;;0.80;;
41755;SDS011;27435;48.480;9.258;2023-12-29T12:18:33;1.60;;;0.70;;
41755;SDS011;27435;48.480;9.258;2023-12-29T12:20:59;1.17;;;0.50;;
41755;SDS011;27435;48.480;9.258;2023-12-29T12:23:28;2.37;;;0.90;;
41755;SDS011;27435;48.480;9.258;2023-12-29T12:25:58;2.07;;;0.60;;
41755;SDS011;27435;48.480;9.258;2023-12-29T12:28:26;1.33;;;0.60;;
41755;SDS011;27435;48.480;9.258;2023-12-29T12:30:52;1.83;;;0.80;;
41755;SDS011;27435;48.480;9.258;2023-12-29T12:33:29;1.30;;;0.60;;
41755;SDS011;27435;48.480;9.258;2023-12-29T12:36:00;1.87;;;0.87;;
41755;SDS011;27435;48.480;9.258;2023-12-29T12:38:26;1.23;;;0.53;;
41755;SDS011;27435;48.480;9.258;2023-12-29T12:40:52;1.87;;;0.90;;
41755;SDS011;27435;48.480;9.258;2023-12-29T12:43:18;2.43;;;0.80;;
41755;SDS011;27435;48.480;9.258;2023-12-29T12:45:53;1.40;;;0.63;;
41755;SDS011;27435;48.480;9.258;2023-12-29T12:48:23;2.27;;;0.60;;
41755;SDS011;27435;48.480;9.258;2023-12-29T12:50:55;1.37;;;0.60;;
41755;SDS011;27435;48.480;9.258;2023-12-29T12:53:22;1.53;;;0.80;;
41755;SDS011;27435;48.480;9.258;2023-12-29T12:55:49;1.60;;;0.70;;
41755;SDS011;27435;48.480;9.258;2023-12-29T12:58:16;2.00;;;0.90;;
41755;SDS011;27435;48.480;9.258;2023-12-29T13:00:46;2.30;;;0.60;;
41755;SDS011;27435;48.480;9.258;2023-12-29T13:03:12;1.90;;;0.70;;
41755;SDS011;27435;48.480;9.258;2023-12-29T13:05:43;1.67;;;0.70;;
41755;SDS011;27435;48.480;9.258;2023-12-29T13:08:12;2.10;;;0.90;;
41755;SDS011;27435;48.480;9.258;2023-12-29T13:10:44;1.67;;;0.70;;
41755;SDS011;27435;48.480;9.258;2023-12-29T13:13:10;1.97;;;0.80;;
41755;SDS011;27435;48.480;9.258;2023-12-29T13:15:57;1.90;;;0.90;;
41755;SDS011;27435;48.480;9.258;2023-12-29T13:20:53;1.17;;;0.60;;
41755;SDS011;27435;48.480;9.258;2023-12-29T13:23:19;1.90;;;0.80;;
41755;SDS011;27435;48.480;9.258;2023-12-29T13:25:46;2.03;;;0.80;;
41755;SDS011;27435;48.480;9.258;2023-12-29T13:28:12;2.73;;;1.10;;
41755;SDS011;27435;48.480;9.258;2023-12-29T13:30:39;2.60;;;1.03;;
41755;SDS011;27435;48.480;9.258;2023-12-29T13:33:13;2.17;;;0.87;;
41755;SDS011;27435;48.480;9.258;2023-12-29T13:36:12;1.75;;;0.93;;
41755;SDS011;27435;48.480;9.258;2023-12-29T13:38:55;1.90;;;0.80;;
41755;SDS011;27435;48.480;9.258;2023-12-29T13:41:24;2.10;;;1.00;;
41755;SDS011;27435;48.480;9.258;2023-12-29T13:43:53;2.47;;;1.00;;
41755;SDS011;27435;48.480;9.258;2023-12-29T13:46:20;2.50;;;1.07;;
41755;SDS011;27435;48.480;9.258;2023-12-29T13:48:46;3.47;;;0.90;;
41755;SDS011;27435;48.480;9.258;2023-12-29T13:51:15;3.53;;;1.10;;
41755;SDS011;27435;48.480;9.258;2023-12-29T13:53:41;1.80;;;0.80;;
41755;SDS011;27435;48.480;9.258;2023-12-29T13:56:07;2.77;;;1.00;;
41755;SDS011;27435;48.480;9.258;2023-12-29T13:58:34;2.10;;;1.00;;
41755;SDS011;27435;48.480;9.258;2023-12-29T14:00:59;2.00;;;0.80;;
41755;SDS011;27435;48.480;9.258;2023-12-29T14:03:46;1.70;;;1.10;;
41755;SDS011;27435;48.480;9.258;2023-12-29T14:09:06;1.60;;;0.70;;
41755;SDS011;27435;48.480;9.258;2023-12-29T14:11:31;2.03;;;0.93;;
41755;SDS011;27435;48.480;9.258;2023-12-29T14:13:57;1.93;;;0.80;;
41755;SDS011;27435;48.480;9.258;2023-12-29T14:16:23;2.80;;;1.00;;
41755;SDS011;27435;48.480;9.258;2023-12-29T14:18:52;2.07;;;0.77;;
41755;SDS011;27435;48.480;9.258;2023-12-29T14:21:22;2.20;;;0.70;;
41755;SDS011;27435;48.480;9.258;2023-12-29T14:26:40;2.20;;;0.80;;
41755;SDS011;27435;48.480;9.258;2023-12-29T14:29:17;1.27;;;0.70;;
41755;SDS011;27435;48.480;9.258;2023-12-29T14:31:48;4.63;;;0.90;;
41755;SDS011;27435;48.480;9.258;2023-12-29T14:34:15;1.90;;;0.90;;
41755;SDS011;27435;48.480;9.258;2023-12-29T14:36:41;2.67;;;0.97;;
41755;SDS011;27435;48.480;9.258;2023-12-29T14:39:08;1.87;;;0.83;;
41755;SDS011;27435;48.480;9.258;2023-12-29T14:41:38;2.93;;;1.27;;
41755;SDS011;27435;48.480;9.258;2023-12-29T14:44:04;2.23;;;0.87;;
41755;SDS011;27435;48.480;9.258;2023-12-29T14:46:30;2.30;;;0.80;;
41755;SDS011;27435;48.480;9.258;2023-12-29T14:48:58;2.73;;;0.90;;
41755;SDS011;27435;48.480;9.258;2023-12-29T14:51:24;2.03;;;1.00;;
41755;SDS011;27435;48.480;9.258;2023-12-29T14:53:50;2.57;;;0.83;;
41755;SDS011;27435;48.480;9.258;2023-12-29T14:56:16;4.23;;;1.33;;
41755;SDS011;27435;48.480;9.258;2023-12-29T14:58:42;5.27;;;1.00;;
41755;SDS011;27435;48.480;9.258;2023-12-29T15:01:08;3.37;;;1.07;;
41755;SDS011;27435;48.480;9.258;2023-12-29T15:03:34;2.33;;;0.80;;
41755;SDS011;27435;48.480;9.258;2023-12-29T15:06:00;3.77;;;1.00;;
41755;SDS011;27435;48.480;9.258;2023-12-29T15:08:26;3.07;;;0.90;;
41755;SDS011;27435;48.480;9.258;2023-12-29T15:10:57;2.43;;;1.03;;
41755;SDS011;27435;48.480;9.258;2023-12-29T15:13:23;2.97;;;0.93;;